sensor_id;sensor_type;location;lat;lon;timestamp;temperature;humidity
18868;DHT22;9563;49.240;9.088;2022-07-25T00:00:42;21.40;99.90
18868;DHT22;9563;49.240;9.088;2022-07-25T00:03:10;21.30;99.90
18868;DHT22;9563;49.240;9.088;2022-07-25T00:05:37;21.30;99.90
18868;DHT22;9563;49.240;9.088;2022-07-25T00:08:04;21.30;99.90
18868;DHT22;9563;49.240;9.088;2022-07-25T00:10:31;21.40;99.90
18868;DHT22;9563;49.240;9.088;2022-07-25T00:12:59;21.40;99.90
18868;DHT22;9563;49.240;9.088;2022-07-25T00:15:27;21.40;99.90
18868;DHT22;9563;49.240;9.088;2022-07-25T00:17:54;21.50;99.90
18868;DHT22;9563;49.240;9.088;2022-07-25T00:20:21;21.60;99.90
18868;DHT22;9563;49.240;9.088;2022-07-25T00:22:48;21.60;99.90
18868;DHT22;9563;49.240;9.088;2022-07-25T00:25:15;21.50;99.90
18868;DHT22;9563;49.240;9.088;2022-07-25T00:27:42;21.50;99.90
18868;DHT22;9563;49.240;9.088;2022-07-25T00:30:11;21.60;99.90
18868;DHT22;9563;49.240;9.088;2022-07-25T00:32:38;21.50;99.90
18868;DHT22;9563;49.240;9.088;2022-07-25T00:35:06;21.40;99.90
18868;DHT22;9563;49.240;9.088;2022-07-25T00:37:34;21.30;99.90
18868;DHT22;9563;49.240;9.088;2022-07-25T00:40:01;21.10;99.90
18868;DHT22;9563;49.240;9.088;2022-07-25T00:42:28;21.00;99.90
18868;DHT22;9563;49.240;9.088;2022-07-25T00:44:54;20.90;99.90
18868;DHT22;9563;49.240;9.088;2022-07-25T00:47:23;21.00;99.90
18868;DHT22;9563;49.240;9.088;2022-07-25T00:49:50;20.80;99.90
18868;DHT22;9563;49.240;9.088;2022-07-25T00:52:17;20.60;99.90
18868;DHT22;9563;49.240;9.088;2022-07-25T00:54:44;20.40;99.90
18868;DHT22;9563;49.240;9.088;2022-07-25T00:57:12;20.50;99.90
18868;DHT22;9563;49.240;9.088;2022-07-25T00:59:38;20.50;99.90
18868;DHT22;9563;49.240;9.088;2022-07-25T01:02:05;20.50;99.90
18868;DHT22;9563;49.240;9.088;2022-07-25T01:04:34;20.50;99.90
18868;DHT22;9563;49.240;9.088;2022-07-25T01:07:01;20.60;99.90
18868;DHT22;9563;49.240;9.088;2022-07-25T01:09:28;20.60;99.90
18868;DHT22;9563;49.240;9.088;2022-07-25T01:11:55;20.60;99.90
18868;DHT22;9563;49.240;9.088;2022-07-25T01:14:22;20.70;99.90
18868;DHT22;9563;49.240;9.088;2022-07-25T01:16:50;20.70;99.90
18868;DHT22;9563;49.240;9.088;2022-07-25T01:19:16;20.80;99.90
18868;DHT22;9563;49.240;9.088;2022-07-25T01:21:45;20.90;99.90
18868;DHT22;9563;49.240;9.088;2022-07-25T01:24:12;20.90;99.90
18868;DHT22;9563;49.240;9.088;2022-07-25T01:26:39;21.00;99.90
18868;DHT22;9563;49.240;9.088;2022-07-25T01:29:06;21.10;99.90
18868;DHT22;9563;49.240;9.088;2022-07-25T01:31:33;21.10;99.90
18868;DHT22;9563;49.240;9.088;2022-07-25T01:34:00;21.00;99.90
18868;DHT22;9563;49.240;9.088;2022-07-25T01:36:34;21.00;99.90
18868;DHT22;9563;49.240;9.088;2022-07-25T01:39:03;21.10;99.90
18868;DHT22;9563;49.240;9.088;2022-07-25T01:41:30;21.10;99.90
18868;DHT22;9563;49.240;9.088;2022-07-25T01:43:57;21.20;99.90
18868;DHT22;9563;49.240;9.088;2022-07-25T01:46:24;21.20;99.90
18868;DHT22;9563;49.240;9.088;2022-07-25T01:48:51;21.20;99.90
18868;DHT22;9563;49.240;9.088;2022-07-25T01:51:18;21.20;99.90
18868;DHT22;9563;49.240;9.088;2022-07-25T01:53:45;21.20;99.90
18868;DHT22;9563;49.240;9.088;2022-07-25T01:56:14;21.20;99.90
18868;DHT22;9563;49.240;9.088;2022-07-25T01:58:41;21.20;99.90
18868;DHT22;9563;49.240;9.088;2022-07-25T02:01:08;21.20;99.90
18868;DHT22;9563;49.240;9.088;2022-07-25T02:03:35;21.30;99.90
18868;DHT22;9563;49.240;9.088;2022-07-25T02:06:04;21.30;99.90
18868;DHT22;9563;49.240;9.088;2022-07-25T02:08:31;21.20;99.90
18868;DHT22;9563;49.240;9.088;2022-07-25T02:10:59;21.10;99.90
18868;DHT22;9563;49.240;9.088;2022-07-25T02:13:28;21.10;99.90
18868;DHT22;9563;49.240;9.088;2022-07-25T02:15:55;21.10;99.90
18868;DHT22;9563;49.240;9.088;2022-07-25T02:18:22;21.00;99.90
18868;DHT22;9563;49.240;9.088;2022-07-25T02:20:49;21.00;99.90
18868;DHT22;9563;49.240;9.088;2022-07-25T02:23:16;21.00;99.90
18868;DHT22;9563;49.240;9.088;2022-07-25T02:25:43;20.90;99.90
18868;DHT22;9563;49.240;9.088;2022-07-25T02:28:10;21.00;99.90
18868;DHT22;9563;49.240;9.088;2022-07-25T02:30:39;21.00;99.90
18868;DHT22;9563;49.240;9.088;2022-07-25T02:33:07;21.00;99.90
18868;DHT22;9563;49.240;9.088;2022-07-25T02:35:35;20.90;99.90
18868;DHT22;9563;49.240;9.088;2022-07-25T02:38:02;20.80;99.90
18868;DHT22;9563;49.240;9.088;2022-07-25T02:40:29;20.80;99.90
18868;DHT22;9563;49.240;9.088;2022-07-25T02:42:56;20.70;99.90
18868;DHT22;9563;49.240;9.088;2022-07-25T02:45:23;20.70;99.90
18868;DHT22;9563;49.240;9.088;2022-07-25T02:47:51;20.60;99.90
18868;DHT22;9563;49.240;9.088;2022-07-25T02:50:18;20.50;99.90
18868;DHT22;9563;49.240;9.088;2022-07-25T02:52:45;20.50;99.90
18868;DHT22;9563;49.240;9.088;2022-07-25T02:55:12;20.40;99.90
18868;DHT22;9563;49.240;9.088;2022-07-25T02:57:39;20.40;99.90
18868;DHT22;9563;49.240;9.088;2022-07-25T03:00:07;20.40;99.90
18868;DHT22;9563;49.240;9.088;2022-07-25T03:02:35;20.40;99.90
18868;DHT22;9563;49.240;9.088;2022-07-25T03:05:06;20.40;99.90
18868;DHT22;9563;49.240;9.088;2022-07-25T03:07:34;20.30;99.90
18868;DHT22;9563;49.240;9.088;2022-07-25T03:10:01;20.30;99.90
18868;DHT22;9563;49.240;9.088;2022-07-25T03:12:28;20.20;99.90
18868;DHT22;9563;49.240;9.088;2022-07-25T03:14:57;20.20;99.90
18868;DHT22;9563;49.240;9.088;2022-07-25T03:17:24;20.20;99.90
18868;DHT22;9563;49.240;9.088;2022-07-25T03:19:51;20.20;99.90
18868;DHT22;9563;49.240;9.088;2022-07-25T03:22:20;20.20;99.90
18868;DHT22;9563;49.240;9.088;2022-07-25T03:24:47;20.20;99.90
18868;DHT22;9563;49.240;9.088;2022-07-25T03:27:14;20.20;99.90
18868;DHT22;9563;49.240;9.088;2022-07-25T03:29:42;20.10;99.90
18868;DHT22;9563;49.240;9.088;2022-07-25T03:32:09;20.10;99.90
18868;DHT22;9563;49.240;9.088;2022-07-25T03:34:37;20.10;99.90
18868;DHT22;9563;49.240;9.088;2022-07-25T03:37:04;20.10;99.90
18868;DHT22;9563;49.240;9.088;2022-07-25T03:39:32;20.10;99.90
18868;DHT22;9563;49.240;9.088;2022-07-25T03:42:00;20.10;99.90
18868;DHT22;9563;49.240;9.088;2022-07-25T03:44:27;20.00;99.90
18868;DHT22;9563;49.240;9.088;2022-07-25T03:46:54;20.00;99.90
18868;DHT22;9563;49.240;9.088;2022-07-25T03:49:20;20.10;99.90
18868;DHT22;9563;49.240;9.088;2022-07-25T03:51:47;20.00;99.90
18868;DHT22;9563;49.240;9.088;2022-07-25T03:54:14;20.10;99.90
18868;DHT22;9563;49.240;9.088;2022-07-25T03:56:45;20.00;99.90
18868;DHT22;9563;49.240;9.088;2022-07-25T03:59:14;20.00;99.90
18868;DHT22;9563;49.240;9.088;2022-07-25T04:01:41;20.00;99.90
18868;DHT22;9563;49.240;9.088;2022-07-25T04:04:08;20.00;99.90
18868;DHT22;9563;49.240;9.088;2022-07-25T04:06:36;20.00;99.90
18868;DHT22;9563;49.240;9.088;2022-07-25T04:09:03;20.00;99.90
18868;DHT22;9563;49.240;9.088;2022-07-25T04:11:30;19.90;99.90
18868;DHT22;9563;49.240;9.088;2022-07-25T04:13:59;20.00;99.90
18868;DHT22;9563;49.240;9.088;2022-07-25T04:16:25;19.90;99.90
18868;DHT22;9563;49.240;9.088;2022-07-25T04:18:52;19.90;99.90
18868;DHT22;9563;49.240;9.088;2022-07-25T04:21:19;20.00;99.90
18868;DHT22;9563;49.240;9.088;2022-07-25T04:23:46;20.00;99.90
18868;DHT22;9563;49.240;9.088;2022-07-25T04:26:13;20.00;99.90
18868;DHT22;9563;49.240;9.088;2022-07-25T04:28:41;20.10;99.90
18868;DHT22;9563;49.240;9.088;2022-07-25T04:31:09;20.10;99.90
18868;DHT22;9563;49.240;9.088;2022-07-25T04:33:36;20.10;99.90
18868;DHT22;9563;49.240;9.088;2022-07-25T04:36:04;20.20;99.90
18868;DHT22;9563;49.240;9.088;2022-07-25T04:38:31;20.20;99.90
18868;DHT22;9563;49.240;9.088;2022-07-25T04:40:59;20.20;99.90
18868;DHT22;9563;49.240;9.088;2022-07-25T04:43:26;20.20;99.90
18868;DHT22;9563;49.240;9.088;2022-07-25T04:45:53;20.20;99.90
18868;DHT22;9563;49.240;9.088;2022-07-25T04:48:21;20.30;99.90
18868;DHT22;9563;49.240;9.088;2022-07-25T04:50:48;20.30;99.90
18868;DHT22;9563;49.240;9.088;2022-07-25T04:53:15;20.30;99.90
18868;DHT22;9563;49.240;9.088;2022-07-25T04:55:42;20.30;99.90
18868;DHT22;9563;49.240;9.088;2022-07-25T04:58:10;20.30;99.90
18868;DHT22;9563;49.240;9.088;2022-07-25T05:00:37;20.30;99.90
18868;DHT22;9563;49.240;9.088;2022-07-25T05:03:04;20.30;99.90
18868;DHT22;9563;49.240;9.088;2022-07-25T05:05:33;20.40;99.90
18868;DHT22;9563;49.240;9.088;2022-07-25T05:08:00;20.40;99.90
18868;DHT22;9563;49.240;9.088;2022-07-25T05:10:28;20.50;99.90
18868;DHT22;9563;49.240;9.088;2022-07-25T05:12:56;20.60;99.90
18868;DHT22;9563;49.240;9.088;2022-07-25T05:15:23;20.70;99.90
18868;DHT22;9563;49.240;9.088;2022-07-25T05:17:50;20.70;99.90
18868;DHT22;9563;49.240;9.088;2022-07-25T05:20:17;20.80;99.90
18868;DHT22;9563;49.240;9.088;2022-07-25T05:22:46;20.90;99.90
18868;DHT22;9563;49.240;9.088;2022-07-25T05:25:13;21.00;99.90
18868;DHT22;9563;49.240;9.088;2022-07-25T05:27:40;21.10;99.90
18868;DHT22;9563;49.240;9.088;2022-07-25T05:30:08;21.20;99.90
18868;DHT22;9563;49.240;9.088;2022-07-25T05:32:36;21.20;99.90
18868;DHT22;9563;49.240;9.088;2022-07-25T05:35:04;21.20;99.90
18868;DHT22;9563;49.240;9.088;2022-07-25T05:37:32;21.30;99.90
18868;DHT22;9563;49.240;9.088;2022-07-25T05:40:02;21.40;99.90
18868;DHT22;9563;49.240;9.088;2022-07-25T05:42:29;21.40;99.90
18868;DHT22;9563;49.240;9.088;2022-07-25T05:44:56;21.50;99.90
18868;DHT22;9563;49.240;9.088;2022-07-25T05:47:23;21.60;99.90
18868;DHT22;9563;49.240;9.088;2022-07-25T05:49:50;21.70;99.90
18868;DHT22;9563;49.240;9.088;2022-07-25T05:52:18;21.80;99.90
18868;DHT22;9563;49.240;9.088;2022-07-25T05:54:45;21.90;99.90
18868;DHT22;9563;49.240;9.088;2022-07-25T05:57:13;21.90;99.90
18868;DHT22;9563;49.240;9.088;2022-07-25T05:59:40;22.10;99.90
18868;DHT22;9563;49.240;9.088;2022-07-25T06:02:08;22.10;99.90
18868;DHT22;9563;49.240;9.088;2022-07-25T06:04:35;22.20;99.90
18868;DHT22;9563;49.240;9.088;2022-07-25T06:07:02;22.30;99.90
18868;DHT22;9563;49.240;9.088;2022-07-25T06:09:29;22.40;99.90
18868;DHT22;9563;49.240;9.088;2022-07-25T06:11:56;22.50;99.90
18868;DHT22;9563;49.240;9.088;2022-07-25T06:14:25;22.60;99.90
18868;DHT22;9563;49.240;9.088;2022-07-25T06:16:52;22.70;99.90
18868;DHT22;9563;49.240;9.088;2022-07-25T06:19:19;22.80;99.90
18868;DHT22;9563;49.240;9.088;2022-07-25T06:21:46;22.90;99.90
18868;DHT22;9563;49.240;9.088;2022-07-25T06:24:12;23.00;99.90
18868;DHT22;9563;49.240;9.088;2022-07-25T06:26:39;23.10;99.90
18868;DHT22;9563;49.240;9.088;2022-07-25T06:29:07;23.20;99.90
18868;DHT22;9563;49.240;9.088;2022-07-25T06:31:35;23.20;99.90
18868;DHT22;9563;49.240;9.088;2022-07-25T06:34:02;23.30;99.90
18868;DHT22;9563;49.240;9.088;2022-07-25T06:36:29;23.40;99.90
18868;DHT22;9563;49.240;9.088;2022-07-25T06:38:56;23.50;99.90
18868;DHT22;9563;49.240;9.088;2022-07-25T06:41:23;23.60;99.90
18868;DHT22;9563;49.240;9.088;2022-07-25T06:43:50;23.70;99.90
18868;DHT22;9563;49.240;9.088;2022-07-25T06:46:17;23.80;99.90
18868;DHT22;9563;49.240;9.088;2022-07-25T06:48:45;23.90;99.90
18868;DHT22;9563;49.240;9.088;2022-07-25T06:51:12;24.00;99.90
18868;DHT22;9563;49.240;9.088;2022-07-25T06:53:40;24.20;99.90
18868;DHT22;9563;49.240;9.088;2022-07-25T06:56:07;24.30;99.90
18868;DHT22;9563;49.240;9.088;2022-07-25T06:58:34;24.40;99.90
18868;DHT22;9563;49.240;9.088;2022-07-25T07:01:01;24.60;99.90
18868;DHT22;9563;49.240;9.088;2022-07-25T07:03:28;24.60;99.90
18868;DHT22;9563;49.240;9.088;2022-07-25T07:05:57;24.70;99.90
18868;DHT22;9563;49.240;9.088;2022-07-25T07:08:25;24.70;99.90
18868;DHT22;9563;49.240;9.088;2022-07-25T07:10:52;24.80;99.90
18868;DHT22;9563;49.240;9.088;2022-07-25T07:13:19;25.00;99.90
18868;DHT22;9563;49.240;9.088;2022-07-25T07:15:49;25.10;99.90
18868;DHT22;9563;49.240;9.088;2022-07-25T07:18:16;25.30;99.90
18868;DHT22;9563;49.240;9.088;2022-07-25T07:20:43;25.40;99.90
18868;DHT22;9563;49.240;9.088;2022-07-25T07:23:11;25.60;99.90
18868;DHT22;9563;49.240;9.088;2022-07-25T07:25:39;25.70;99.90
18868;DHT22;9563;49.240;9.088;2022-07-25T07:28:06;25.90;99.90
18868;DHT22;9563;49.240;9.088;2022-07-25T07:30:33;26.00;99.90
18868;DHT22;9563;49.240;9.088;2022-07-25T07:33:00;26.20;99.90
18868;DHT22;9563;49.240;9.088;2022-07-25T07:35:42;26.30;99.90
18868;DHT22;9563;49.240;9.088;2022-07-25T07:38:12;26.50;99.90
18868;DHT22;9563;49.240;9.088;2022-07-25T07:40:39;26.80;99.90
18868;DHT22;9563;49.240;9.088;2022-07-25T07:43:06;26.90;99.90
18868;DHT22;9563;49.240;9.088;2022-07-25T07:45:34;27.20;99.90
18868;DHT22;9563;49.240;9.088;2022-07-25T07:48:01;27.40;99.90
18868;DHT22;9563;49.240;9.088;2022-07-25T07:50:27;27.60;99.90
18868;DHT22;9563;49.240;9.088;2022-07-25T07:52:55;27.80;99.90
18868;DHT22;9563;49.240;9.088;2022-07-25T07:55:24;28.10;99.90
18868;DHT22;9563;49.240;9.088;2022-07-25T07:58:09;28.30;99.90
18868;DHT22;9563;49.240;9.088;2022-07-25T08:00:37;28.50;99.90
18868;DHT22;9563;49.240;9.088;2022-07-25T08:03:05;28.60;99.90
18868;DHT22;9563;49.240;9.088;2022-07-25T08:05:35;28.90;99.90
18868;DHT22;9563;49.240;9.088;2022-07-25T08:08:03;28.90;99.90
18868;DHT22;9563;49.240;9.088;2022-07-25T08:10:34;29.10;99.90
18868;DHT22;9563;49.240;9.088;2022-07-25T08:13:03;29.40;99.90
18868;DHT22;9563;49.240;9.088;2022-07-25T08:15:37;29.50;99.90
18868;DHT22;9563;49.240;9.088;2022-07-25T08:18:04;29.70;99.90
18868;DHT22;9563;49.240;9.088;2022-07-25T08:20:31;29.90;99.90
18868;DHT22;9563;49.240;9.088;2022-07-25T08:22:58;30.10;99.90
18868;DHT22;9563;49.240;9.088;2022-07-25T08:25:25;30.20;99.90
18868;DHT22;9563;49.240;9.088;2022-07-25T08:27:54;30.10;99.90
18868;DHT22;9563;49.240;9.088;2022-07-25T08:30:21;30.20;99.90
18868;DHT22;9563;49.240;9.088;2022-07-25T08:32:51;30.40;99.90
18868;DHT22;9563;49.240;9.088;2022-07-25T08:35:19;30.40;99.90
18868;DHT22;9563;49.240;9.088;2022-07-25T08:37:47;30.60;99.90
18868;DHT22;9563;49.240;9.088;2022-07-25T08:40:15;30.60;99.90
18868;DHT22;9563;49.240;9.088;2022-07-25T08:42:43;30.80;99.90
18868;DHT22;9563;49.240;9.088;2022-07-25T08:45:13;30.90;99.90
18868;DHT22;9563;49.240;9.088;2022-07-25T08:47:40;31.10;99.90
18868;DHT22;9563;49.240;9.088;2022-07-25T08:50:09;31.30;99.90
18868;DHT22;9563;49.240;9.088;2022-07-25T08:52:37;31.40;99.90
18868;DHT22;9563;49.240;9.088;2022-07-25T08:55:07;31.40;98.50
18868;DHT22;9563;49.240;9.088;2022-07-25T08:57:36;31.30;97.30
18868;DHT22;9563;49.240;9.088;2022-07-25T09:00:07;31.40;97.20
18868;DHT22;9563;49.240;9.088;2022-07-25T09:02:35;31.20;96.40
18868;DHT22;9563;49.240;9.088;2022-07-25T09:05:03;31.20;96.20
18868;DHT22;9563;49.240;9.088;2022-07-25T09:07:32;31.20;95.80
18868;DHT22;9563;49.240;9.088;2022-07-25T09:10:11;31.30;96.00
18868;DHT22;9563;49.240;9.088;2022-07-25T09:12:39;31.30;94.90
18868;DHT22;9563;49.240;9.088;2022-07-25T09:15:07;31.20;94.00
18868;DHT22;9563;49.240;9.088;2022-07-25T09:17:48;31.20;94.10
18868;DHT22;9563;49.240;9.088;2022-07-25T09:20:15;31.20;94.10
18868;DHT22;9563;49.240;9.088;2022-07-25T09:22:43;31.30;94.50
18868;DHT22;9563;49.240;9.088;2022-07-25T09:25:24;31.20;93.00
18868;DHT22;9563;49.240;9.088;2022-07-25T09:27:51;31.20;93.60
18868;DHT22;9563;49.240;9.088;2022-07-25T09:30:19;31.30;93.00
18868;DHT22;9563;49.240;9.088;2022-07-25T09:32:58;31.40;93.00
18868;DHT22;9563;49.240;9.088;2022-07-25T09:35:29;31.40;93.00
18868;DHT22;9563;49.240;9.088;2022-07-25T09:38:09;31.60;94.00
18868;DHT22;9563;49.240;9.088;2022-07-25T09:40:36;31.80;91.90
18868;DHT22;9563;49.240;9.088;2022-07-25T09:43:03;32.00;92.10
18868;DHT22;9563;49.240;9.088;2022-07-25T09:45:31;32.10;90.70
18868;DHT22;9563;49.240;9.088;2022-07-25T09:48:02;32.20;90.10
18868;DHT22;9563;49.240;9.088;2022-07-25T09:50:31;32.20;90.60
18868;DHT22;9563;49.240;9.088;2022-07-25T09:53:00;32.50;91.00
18868;DHT22;9563;49.240;9.088;2022-07-25T09:55:28;32.60;89.70
18868;DHT22;9563;49.240;9.088;2022-07-25T09:57:56;32.70;87.80
18868;DHT22;9563;49.240;9.088;2022-07-25T10:00:26;32.70;86.80
18868;DHT22;9563;49.240;9.088;2022-07-25T10:03:16;32.50;84.20
18868;DHT22;9563;49.240;9.088;2022-07-25T10:06:08;32.50;83.80
18868;DHT22;9563;49.240;9.088;2022-07-25T10:08:38;32.70;84.00
18868;DHT22;9563;49.240;9.088;2022-07-25T10:11:17;32.70;83.20
18868;DHT22;9563;49.240;9.088;2022-07-25T10:13:44;32.80;83.00
18868;DHT22;9563;49.240;9.088;2022-07-25T10:16:16;33.00;83.30
18868;DHT22;9563;49.240;9.088;2022-07-25T10:18:50;33.10;82.40
18868;DHT22;9563;49.240;9.088;2022-07-25T10:21:19;33.20;81.10
18868;DHT22;9563;49.240;9.088;2022-07-25T10:24:00;33.30;80.90
18868;DHT22;9563;49.240;9.088;2022-07-25T10:26:28;33.30;80.00
18868;DHT22;9563;49.240;9.088;2022-07-25T10:28:56;33.40;79.00
18868;DHT22;9563;49.240;9.088;2022-07-25T10:31:25;33.70;79.50
18868;DHT22;9563;49.240;9.088;2022-07-25T10:33:55;33.80;80.40
18868;DHT22;9563;49.240;9.088;2022-07-25T10:36:24;33.50;76.80
18868;DHT22;9563;49.240;9.088;2022-07-25T10:38:59;33.60;76.70
18868;DHT22;9563;49.240;9.088;2022-07-25T10:41:26;33.70;77.20
18868;DHT22;9563;49.240;9.088;2022-07-25T10:43:58;33.90;78.80
18868;DHT22;9563;49.240;9.088;2022-07-25T10:46:27;34.00;76.50
18868;DHT22;9563;49.240;9.088;2022-07-25T10:49:02;34.20;78.50
18868;DHT22;9563;49.240;9.088;2022-07-25T10:51:31;34.20;77.00
18868;DHT22;9563;49.240;9.088;2022-07-25T10:54:10;34.20;74.40
18868;DHT22;9563;49.240;9.088;2022-07-25T10:56:37;34.20;75.30
18868;DHT22;9563;49.240;9.088;2022-07-25T10:59:05;34.20;70.80
18868;DHT22;9563;49.240;9.088;2022-07-25T11:01:33;34.30;72.50
18868;DHT22;9563;49.240;9.088;2022-07-25T11:04:04;34.30;74.50
18868;DHT22;9563;49.240;9.088;2022-07-25T11:06:35;34.50;75.60
18868;DHT22;9563;49.240;9.088;2022-07-25T11:09:03;34.50;74.50
18868;DHT22;9563;49.240;9.088;2022-07-25T11:11:36;34.30;70.50
18868;DHT22;9563;49.240;9.088;2022-07-25T11:14:12;34.20;72.20
18868;DHT22;9563;49.240;9.088;2022-07-25T11:16:39;33.90;73.70
18868;DHT22;9563;49.240;9.088;2022-07-25T11:19:16;33.90;74.80
18868;DHT22;9563;49.240;9.088;2022-07-25T11:21:45;33.90;73.20
18868;DHT22;9563;49.240;9.088;2022-07-25T11:24:12;33.70;71.90
18868;DHT22;9563;49.240;9.088;2022-07-25T11:26:50;33.40;70.60
18868;DHT22;9563;49.240;9.088;2022-07-25T11:29:18;33.50;74.00
18868;DHT22;9563;49.240;9.088;2022-07-25T11:31:53;33.60;73.40
18868;DHT22;9563;49.240;9.088;2022-07-25T11:34:25;33.80;72.10
18868;DHT22;9563;49.240;9.088;2022-07-25T11:36:55;34.10;71.00
18868;DHT22;9563;49.240;9.088;2022-07-25T11:39:24;34.30;71.20
18868;DHT22;9563;49.240;9.088;2022-07-25T11:41:59;34.40;69.20
18868;DHT22;9563;49.240;9.088;2022-07-25T11:44:33;34.40;68.30
18868;DHT22;9563;49.240;9.088;2022-07-25T11:47:01;34.50;68.00
18868;DHT22;9563;49.240;9.088;2022-07-25T11:49:30;34.60;68.80
18868;DHT22;9563;49.240;9.088;2022-07-25T11:51:57;34.40;69.10
18868;DHT22;9563;49.240;9.088;2022-07-25T11:54:24;34.30;68.70
18868;DHT22;9563;49.240;9.088;2022-07-25T11:56:51;34.20;69.30
18868;DHT22;9563;49.240;9.088;2022-07-25T11:59:19;34.20;69.30
18868;DHT22;9563;49.240;9.088;2022-07-25T12:01:46;34.10;66.30
18868;DHT22;9563;49.240;9.088;2022-07-25T12:04:14;34.20;67.40
18868;DHT22;9563;49.240;9.088;2022-07-25T12:06:45;34.40;66.00
18868;DHT22;9563;49.240;9.088;2022-07-25T12:09:16;34.40;65.70
18868;DHT22;9563;49.240;9.088;2022-07-25T12:11:44;34.30;65.20
18868;DHT22;9563;49.240;9.088;2022-07-25T12:14:12;34.30;64.20
18868;DHT22;9563;49.240;9.088;2022-07-25T12:16:40;34.30;65.40
18868;DHT22;9563;49.240;9.088;2022-07-25T12:19:17;34.40;66.50
18868;DHT22;9563;49.240;9.088;2022-07-25T12:21:47;34.40;63.70
18868;DHT22;9563;49.240;9.088;2022-07-25T12:24:14;34.20;65.20
18868;DHT22;9563;49.240;9.088;2022-07-25T12:26:41;33.80;65.20
18868;DHT22;9563;49.240;9.088;2022-07-25T12:29:08;33.40;67.00
18868;DHT22;9563;49.240;9.088;2022-07-25T12:31:35;33.10;67.70
18868;DHT22;9563;49.240;9.088;2022-07-25T12:34:02;32.90;67.50
18868;DHT22;9563;49.240;9.088;2022-07-25T12:36:29;32.80;67.80
18868;DHT22;9563;49.240;9.088;2022-07-25T12:39:00;32.90;69.50
18868;DHT22;9563;49.240;9.088;2022-07-25T12:41:30;33.20;68.40
18868;DHT22;9563;49.240;9.088;2022-07-25T12:43:57;33.60;67.30
18868;DHT22;9563;49.240;9.088;2022-07-25T12:46:25;33.80;65.70
18868;DHT22;9563;49.240;9.088;2022-07-25T12:48:52;34.00;65.50
18868;DHT22;9563;49.240;9.088;2022-07-25T12:51:19;34.20;65.80
18868;DHT22;9563;49.240;9.088;2022-07-25T12:53:46;34.50;65.70
18868;DHT22;9563;49.240;9.088;2022-07-25T12:56:15;34.60;65.70
18868;DHT22;9563;49.240;9.088;2022-07-25T12:58:42;34.30;64.00
18868;DHT22;9563;49.240;9.088;2022-07-25T13:01:09;33.90;64.90
18868;DHT22;9563;49.240;9.088;2022-07-25T13:03:38;33.60;65.70
18868;DHT22;9563;49.240;9.088;2022-07-25T13:06:05;33.30;68.40
18868;DHT22;9563;49.240;9.088;2022-07-25T13:08:32;33.20;68.70
18868;DHT22;9563;49.240;9.088;2022-07-25T13:11:02;33.20;69.50
18868;DHT22;9563;49.240;9.088;2022-07-25T13:13:30;33.20;69.70
18868;DHT22;9563;49.240;9.088;2022-07-25T13:15:58;33.40;70.40
18868;DHT22;9563;49.240;9.088;2022-07-25T13:18:28;33.50;69.50
18868;DHT22;9563;49.240;9.088;2022-07-25T13:21:08;33.50;68.40
18868;DHT22;9563;49.240;9.088;2022-07-25T13:23:36;33.40;69.50
18868;DHT22;9563;49.240;9.088;2022-07-25T13:26:03;33.30;68.30
18868;DHT22;9563;49.240;9.088;2022-07-25T13:28:31;33.30;70.60
18868;DHT22;9563;49.240;9.088;2022-07-25T13:30:58;33.10;68.70
18868;DHT22;9563;49.240;9.088;2022-07-25T13:33:26;33.10;69.90
18868;DHT22;9563;49.240;9.088;2022-07-25T13:35:54;33.00;71.10
18868;DHT22;9563;49.240;9.088;2022-07-25T13:38:21;32.90;70.70
18868;DHT22;9563;49.240;9.088;2022-07-25T13:40:48;32.90;72.30
18868;DHT22;9563;49.240;9.088;2022-07-25T13:43:15;32.90;72.00
18868;DHT22;9563;49.240;9.088;2022-07-25T13:45:43;32.90;72.80
18868;DHT22;9563;49.240;9.088;2022-07-25T13:48:11;32.90;71.30
18868;DHT22;9563;49.240;9.088;2022-07-25T13:50:38;32.80;71.30
18868;DHT22;9563;49.240;9.088;2022-07-25T13:53:06;32.60;71.30
18868;DHT22;9563;49.240;9.088;2022-07-25T13:55:33;32.40;71.10
18868;DHT22;9563;49.240;9.088;2022-07-25T13:58:02;32.20;72.90
18868;DHT22;9563;49.240;9.088;2022-07-25T14:00:29;32.10;74.60
18868;DHT22;9563;49.240;9.088;2022-07-25T14:02:58;31.80;78.50
18868;DHT22;9563;49.240;9.088;2022-07-25T14:05:25;31.70;80.20
18868;DHT22;9563;49.240;9.088;2022-07-25T14:07:54;31.50;78.00
18868;DHT22;9563;49.240;9.088;2022-07-25T14:10:35;31.50;80.60
18868;DHT22;9563;49.240;9.088;2022-07-25T14:13:02;31.60;80.10
18868;DHT22;9563;49.240;9.088;2022-07-25T14:15:29;31.90;81.00
18868;DHT22;9563;49.240;9.088;2022-07-25T14:18:02;32.30;81.50
18868;DHT22;9563;49.240;9.088;2022-07-25T14:20:29;32.80;79.50
18868;DHT22;9563;49.240;9.088;2022-07-25T14:22:57;33.10;77.70
18868;DHT22;9563;49.240;9.088;2022-07-25T14:25:24;33.10;76.90
18868;DHT22;9563;49.240;9.088;2022-07-25T14:27:51;33.00;76.60
18868;DHT22;9563;49.240;9.088;2022-07-25T14:30:18;33.00;74.40
18868;DHT22;9563;49.240;9.088;2022-07-25T14:32:45;33.10;75.10
18868;DHT22;9563;49.240;9.088;2022-07-25T14:35:14;33.00;73.80
18868;DHT22;9563;49.240;9.088;2022-07-25T14:37:41;33.10;74.70
18868;DHT22;9563;49.240;9.088;2022-07-25T14:40:12;32.90;74.00
18868;DHT22;9563;49.240;9.088;2022-07-25T14:42:39;32.60;74.10
18868;DHT22;9563;49.240;9.088;2022-07-25T14:45:07;32.30;75.00
18868;DHT22;9563;49.240;9.088;2022-07-25T14:47:34;32.00;76.10
18868;DHT22;9563;49.240;9.088;2022-07-25T14:50:01;31.80;76.80
18868;DHT22;9563;49.240;9.088;2022-07-25T14:52:30;31.60;77.20
18868;DHT22;9563;49.240;9.088;2022-07-25T14:54:57;31.40;78.30
18868;DHT22;9563;49.240;9.088;2022-07-25T14:57:25;31.30;78.60
18868;DHT22;9563;49.240;9.088;2022-07-25T14:59:52;31.20;78.80
18868;DHT22;9563;49.240;9.088;2022-07-25T15:02:26;31.10;79.70
18868;DHT22;9563;49.240;9.088;2022-07-25T15:04:53;31.00;80.00
18868;DHT22;9563;49.240;9.088;2022-07-25T15:07:20;30.90;80.30
18868;DHT22;9563;49.240;9.088;2022-07-25T15:09:51;30.90;83.20
18868;DHT22;9563;49.240;9.088;2022-07-25T15:12:17;30.80;85.00
18868;DHT22;9563;49.240;9.088;2022-07-25T15:14:46;30.70;85.60
18868;DHT22;9563;49.240;9.088;2022-07-25T15:17:13;30.60;84.20
18868;DHT22;9563;49.240;9.088;2022-07-25T15:19:40;30.60;85.70
18868;DHT22;9563;49.240;9.088;2022-07-25T15:22:07;30.40;91.00
18868;DHT22;9563;49.240;9.088;2022-07-25T15:24:33;30.20;90.70
18868;DHT22;9563;49.240;9.088;2022-07-25T15:27:02;30.10;91.40
18868;DHT22;9563;49.240;9.088;2022-07-25T15:29:29;30.00;92.30
18868;DHT22;9563;49.240;9.088;2022-07-25T15:31:57;29.90;93.60
18868;DHT22;9563;49.240;9.088;2022-07-25T15:34:24;29.80;96.40
18868;DHT22;9563;49.240;9.088;2022-07-25T15:36:50;29.70;96.00
18868;DHT22;9563;49.240;9.088;2022-07-25T15:39:19;29.60;95.50
18868;DHT22;9563;49.240;9.088;2022-07-25T15:41:47;29.50;96.80
18868;DHT22;9563;49.240;9.088;2022-07-25T15:44:16;29.60;96.40
18868;DHT22;9563;49.240;9.088;2022-07-25T15:46:44;29.90;96.60
18868;DHT22;9563;49.240;9.088;2022-07-25T15:49:11;30.10;98.00
18868;DHT22;9563;49.240;9.088;2022-07-25T15:51:40;30.40;96.50